createdAt,value
2016-07-16T00:00:00.778Z,1020.72
2016-07-16T00:00:10.784Z,1020.76
2016-07-16T00:00:20.768Z,1020.74
2016-07-16T00:00:30.762Z,1020.71
2016-07-16T00:00:40.758Z,1020.78
2016-07-16T00:00:50.755Z,1020.74
2016-07-16T00:01:00.748Z,1020.74
2016-07-16T00:01:10.745Z,1020.75
2016-07-16T00:01:20.737Z,1020.76
2016-07-16T00:01:30.733Z,1020.78
2016-07-16T00:01:40.733Z,1020.78
2016-07-16T00:01:50.724Z,1020.72
2016-07-16T00:02:00.719Z,1020.75
2016-07-16T00:02:10.715Z,1020.73
2016-07-16T00:02:20.712Z,1020.75
2016-07-16T00:02:30.707Z,1020.71
2016-07-16T00:02:40.702Z,1020.73
2016-07-16T00:02:50.698Z,1020.78
2016-07-16T00:03:00.691Z,1020.72
2016-07-16T00:03:10.687Z,1020.77
2016-07-16T00:03:20.681Z,1020.75
2016-07-16T00:03:30.677Z,1020.78
2016-07-16T00:03:40.672Z,1020.73
2016-07-16T00:03:50.670Z,1020.77
2016-07-16T00:04:00.664Z,1020.73
2016-07-16T00:04:10.654Z,1020.76
2016-07-16T00:04:20.651Z,1020.77
2016-07-16T00:04:30.658Z,1020.74
2016-07-16T00:04:40.641Z,1020.73
2016-07-16T00:04:50.636Z,1020.73
2016-07-16T00:05:00.631Z,1020.72
2016-07-16T00:05:10.628Z,1020.7
2016-07-16T00:05:20.622Z,1020.72
2016-07-16T00:05:30.616Z,1020.75
2016-07-16T00:05:40.612Z,1020.73
2016-07-16T00:05:50.610Z,1020.75
2016-07-16T00:06:00.605Z,1020.73
2016-07-16T00:06:10.600Z,1020.78
2016-07-16T00:06:20.593Z,1020.71
2016-07-16T00:06:30.591Z,1020.71
2016-07-16T00:06:40.584Z,1020.72
2016-07-16T00:06:50.576Z,1020.76
2016-07-16T00:07:00.573Z,1020.74
2016-07-16T00:07:10.568Z,1020.76
2016-07-16T00:07:20.562Z,1020.77
2016-07-16T00:07:30.558Z,1020.73
2016-07-16T00:07:40.554Z,1020.75
2016-07-16T00:07:50.546Z,1020.71
2016-07-16T00:08:00.543Z,1020.76
2016-07-16T00:08:10.540Z,1020.76
2016-07-16T00:08:20.534Z,1020.78
2016-07-16T00:08:30.529Z,1020.73
2016-07-16T00:08:40.527Z,1020.74
2016-07-16T00:08:50.521Z,1020.74
2016-07-16T00:09:00.515Z,1020.74
2016-07-16T00:09:10.511Z,1020.72
2016-07-16T00:09:20.508Z,1020.76
2016-07-16T00:09:30.499Z,1020.78
2016-07-16T00:09:40.495Z,1020.76
2016-07-16T00:09:50.493Z,1020.69
2016-07-16T00:10:00.486Z,1020.71
2016-07-16T00:10:10.482Z,1020.7
2016-07-16T00:10:20.477Z,1020.7
2016-07-16T00:10:30.471Z,1020.7
2016-07-16T00:10:40.468Z,1020.67
2016-07-16T00:10:50.462Z,1020.69
2016-07-16T00:11:00.458Z,1020.68
2016-07-16T00:11:10.451Z,1020.72
2016-07-16T00:11:20.446Z,1020.68
2016-07-16T00:11:30.443Z,1020.68
2016-07-16T00:11:41.166Z,1020.68
2016-07-16T00:11:50.433Z,1020.68
2016-07-16T00:12:00.436Z,1020.68
2016-07-16T00:12:10.421Z,1020.66
2016-07-16T00:12:20.419Z,1020.65
2016-07-16T00:12:30.414Z,1020.64
2016-07-16T00:12:40.414Z,1020.65
2016-07-16T00:12:50.402Z,1020.68
2016-07-16T00:13:00.398Z,1020.66
2016-07-16T00:13:10.393Z,1020.66
2016-07-16T00:13:20.391Z,1020.63
2016-07-16T00:13:30.383Z,1020.63
2016-07-16T00:13:40.377Z,1020.67
2016-07-16T00:13:50.373Z,1020.69
2016-07-16T00:14:00.367Z,1020.65
2016-07-16T00:14:10.367Z,1020.66
2016-07-16T00:14:20.357Z,1020.65
2016-07-16T00:14:30.352Z,1020.67
2016-07-16T00:14:40.351Z,1020.68
2016-07-16T00:14:50.357Z,1020.68
2016-07-16T00:15:00.342Z,1020.7
2016-07-16T00:15:10.336Z,1020.63
2016-07-16T00:15:20.330Z,1020.65
2016-07-16T00:15:30.327Z,1020.64
2016-07-16T00:15:40.321Z,1020.65
2016-07-16T00:15:50.314Z,1020.66
2016-07-16T00:16:00.311Z,1020.6
2016-07-16T00:16:10.306Z,1020.61
2016-07-16T00:16:20.298Z,1020.66
2016-07-16T00:16:30.295Z,1020.63
2016-07-16T00:16:40.290Z,1020.63
2016-07-16T00:16:50.287Z,1020.64
2016-07-16T00:17:00.281Z,1020.65
2016-07-16T00:17:10.277Z,1020.7
2016-07-16T00:17:20.272Z,1020.64
2016-07-16T00:17:30.267Z,1020.67
2016-07-16T00:17:40.262Z,1020.61
2016-07-16T00:17:50.258Z,1020.67
2016-07-16T00:18:00.254Z,1020.63
2016-07-16T00:18:10.247Z,1020.67
2016-07-16T00:18:20.254Z,1020.68
2016-07-16T00:18:30.238Z,1020.62
2016-07-16T00:18:40.234Z,1020.61
2016-07-16T00:18:50.227Z,1020.63
2016-07-16T00:19:00.222Z,1020.61
2016-07-16T00:19:10.946Z,1020.62
2016-07-16T00:19:20.214Z,1020.66
2016-07-16T00:19:30.208Z,1020.62
2016-07-16T00:19:40.202Z,1020.66
2016-07-16T00:19:50.198Z,1020.57
2016-07-16T00:20:00.192Z,1020.65
2016-07-16T00:20:10.187Z,1020.6
2016-07-16T00:20:20.185Z,1020.56
2016-07-16T00:20:30.179Z,1020.59
2016-07-16T00:20:40.174Z,1020.58
2016-07-16T00:20:50.170Z,1020.59
2016-07-16T00:21:00.163Z,1020.61
2016-07-16T00:21:10.159Z,1020.57
2016-07-16T00:21:20.885Z,1020.58
2016-07-16T00:21:30.152Z,1020.6
2016-07-16T00:21:40.146Z,1020.6
2016-07-16T00:21:50.140Z,1020.54
2016-07-16T00:22:00.134Z,1020.53
2016-07-16T00:22:10.129Z,1020.54
2016-07-16T00:22:20.123Z,1020.53
2016-07-16T00:22:30.120Z,1020.58
2016-07-16T00:22:40.118Z,1020.62
2016-07-16T00:22:50.111Z,1020.56
2016-07-16T00:23:00.107Z,1020.59
2016-07-16T00:23:10.101Z,1020.56
2016-07-16T00:23:20.095Z,1020.56
2016-07-16T00:23:30.089Z,1020.54
2016-07-16T00:23:40.084Z,1020.58
2016-07-16T00:23:50.081Z,1020.54
2016-07-16T00:24:00.077Z,1020.54
2016-07-16T00:24:10.073Z,1020.55
2016-07-16T00:24:20.068Z,1020.52
2016-07-16T00:24:30.063Z,1020.52
2016-07-16T00:24:40.057Z,1020.54
2016-07-16T00:24:50.052Z,1020.55
2016-07-16T00:25:00.047Z,1020.56
2016-07-16T00:25:10.042Z,1020.56
2016-07-16T00:25:20.038Z,1020.52
2016-07-16T00:25:30.033Z,1020.54
2016-07-16T00:25:40.027Z,1020.51
2016-07-16T00:25:50.027Z,1020.53
2016-07-16T00:26:00.018Z,1020.55
2016-07-16T00:26:10.012Z,1020.53
2016-07-16T00:26:20.007Z,1020.5
2016-07-16T00:26:30.002Z,1020.55
2016-07-16T00:26:40.728Z,1020.52
2016-07-16T00:26:49.993Z,1020.49
2016-07-16T00:26:59.988Z,1020.49
2016-07-16T00:27:09.985Z,1020.49
2016-07-16T00:27:19.977Z,1020.49
2016-07-16T00:27:29.973Z,1020.53
2016-07-16T00:27:39.971Z,1020.5
2016-07-16T00:27:49.964Z,1020.5
2016-07-16T00:27:59.959Z,1020.48
2016-07-16T00:28:09.956Z,1020.52
2016-07-16T00:28:19.950Z,1020.52
2016-07-16T00:28:29.945Z,1020.49
2016-07-16T00:28:39.941Z,1020.48
2016-07-16T00:28:49.937Z,1020.5
2016-07-16T00:28:59.930Z,1020.46
2016-07-16T00:29:09.926Z,1020.48
2016-07-16T00:29:19.919Z,1020.46
2016-07-16T00:29:29.915Z,1020.48
2016-07-16T00:29:39.910Z,1020.48
2016-07-16T00:29:49.909Z,1020.48
2016-07-16T00:29:59.900Z,1020.48
2016-07-16T00:30:09.895Z,1020.52
2016-07-16T00:30:19.892Z,1020.47
2016-07-16T00:30:29.887Z,1020.47
2016-07-16T00:30:39.883Z,1020.46
2016-07-16T00:30:49.878Z,1020.46
2016-07-16T00:30:59.872Z,1020.46
2016-07-16T00:31:09.868Z,1020.47
2016-07-16T00:31:19.861Z,1020.5
2016-07-16T00:31:29.859Z,1020.49
2016-07-16T00:31:39.850Z,1020.51
2016-07-16T00:31:49.848Z,1020.5
2016-07-16T00:31:59.843Z,1020.47
2016-07-16T00:32:09.837Z,1020.46
2016-07-16T00:32:19.831Z,1020.48
2016-07-16T00:32:29.828Z,1020.49
2016-07-16T00:32:39.821Z,1020.46
2016-07-16T00:32:49.817Z,1020.47
2016-07-16T00:32:59.814Z,1020.45
2016-07-16T00:33:09.808Z,1020.44
2016-07-16T00:33:19.802Z,1020.47
2016-07-16T00:33:29.806Z,1020.43
2016-07-16T00:33:39.797Z,1020.49
2016-07-16T00:33:49.788Z,1020.43
2016-07-16T00:33:59.784Z,1020.45
2016-07-16T00:34:09.778Z,1020.45
2016-07-16T00:34:19.776Z,1020.47
2016-07-16T00:34:29.769Z,1020.44
2016-07-16T00:34:39.767Z,1020.5
2016-07-16T00:34:49.760Z,1020.44
2016-07-16T00:34:59.756Z,1020.49
2016-07-16T00:35:09.750Z,1020.47
2016-07-16T00:35:19.744Z,1020.44
2016-07-16T00:35:29.739Z,1020.45
2016-07-16T00:35:39.734Z,1020.45
2016-07-16T00:35:49.728Z,1020.46
2016-07-16T00:35:59.725Z,1020.47
2016-07-16T00:36:09.718Z,1020.49
2016-07-16T00:36:19.716Z,1020.42
2016-07-16T00:36:29.712Z,1020.44
2016-07-16T00:36:39.705Z,1020.46
2016-07-16T00:36:49.702Z,1020.42
2016-07-16T00:37:00.425Z,1020.45
2016-07-16T00:37:09.692Z,1020.48
2016-07-16T00:37:19.685Z,1020.44
2016-07-16T00:37:29.680Z,1020.41
2016-07-16T00:37:39.678Z,1020.42
2016-07-16T00:37:49.672Z,1020.45
2016-07-16T00:37:59.668Z,1020.5
2016-07-16T00:38:09.663Z,1020.48
2016-07-16T00:38:19.655Z,1020.41
2016-07-16T00:38:29.653Z,1020.48
2016-07-16T00:38:39.648Z,1020.44
2016-07-16T00:38:49.642Z,1020.45
2016-07-16T00:38:59.641Z,1020.44
2016-07-16T00:39:09.631Z,1020.45
2016-07-16T00:39:19.627Z,1020.49
2016-07-16T00:39:29.623Z,1020.41
2016-07-16T00:39:39.618Z,1020.5
2016-07-16T00:39:49.613Z,1020.44
2016-07-16T00:39:59.609Z,1020.48
2016-07-16T00:40:09.605Z,1020.47
2016-07-16T00:40:19.597Z,1020.47
2016-07-16T00:40:29.596Z,1020.49
2016-07-16T00:40:39.590Z,1020.48
2016-07-16T00:40:49.586Z,1020.48
2016-07-16T00:40:59.580Z,1020.49
2016-07-16T00:41:09.574Z,1020.48
2016-07-16T00:41:19.572Z,1020.48
2016-07-16T00:41:29.568Z,1020.47
2016-07-16T00:41:39.560Z,1020.53
2016-07-16T00:41:49.553Z,1020.49
2016-07-16T00:42:00.277Z,1020.48
2016-07-16T00:42:09.543Z,1020.51
2016-07-16T00:42:19.539Z,1020.48
2016-07-16T00:42:29.535Z,1020.49
2016-07-16T00:42:39.527Z,1020.52
2016-07-16T00:42:49.527Z,1020.51
2016-07-16T00:42:59.521Z,1020.57
2016-07-16T00:43:09.515Z,1020.49
2016-07-16T00:43:19.511Z,1020.51
2016-07-16T00:43:29.505Z,1020.5
2016-07-16T00:43:39.500Z,1020.46
2016-07-16T00:43:49.495Z,1020.52
2016-07-16T00:43:59.493Z,1020.54
2016-07-16T00:44:09.486Z,1020.51
2016-07-16T00:44:19.482Z,1020.52
2016-07-16T00:44:29.477Z,1020.49
2016-07-16T00:44:39.469Z,1020.51
2016-07-16T00:44:49.468Z,1020.56
2016-07-16T00:44:59.462Z,1020.49
2016-07-16T00:45:09.458Z,1020.54
2016-07-16T00:45:19.450Z,1020.48
2016-07-16T00:45:29.444Z,1020.55
2016-07-16T00:45:39.441Z,1020.55
2016-07-16T00:45:49.439Z,1020.54
2016-07-16T00:45:59.433Z,1020.5
2016-07-16T00:46:09.430Z,1020.52
2016-07-16T00:46:19.423Z,1020.51
2016-07-16T00:46:29.419Z,1020.51
2016-07-16T00:46:39.415Z,1020.52
2016-07-16T00:46:49.405Z,1020.49
2016-07-16T00:46:59.404Z,1020.52
2016-07-16T00:47:09.400Z,1020.5
2016-07-16T00:47:19.396Z,1020.49
2016-07-16T00:47:29.388Z,1020.52
2016-07-16T00:47:39.383Z,1020.51
2016-07-16T00:47:49.380Z,1020.55
2016-07-16T00:47:59.373Z,1020.52
2016-07-16T00:48:09.370Z,1020.52
2016-07-16T00:48:19.363Z,1020.56
2016-07-16T00:48:29.359Z,1020.46
2016-07-16T00:48:39.352Z,1020.53
2016-07-16T00:48:49.351Z,1020.49
2016-07-16T00:48:59.345Z,1020.5
2016-07-16T00:49:09.339Z,1020.5
2016-07-16T00:49:19.337Z,1020.54
2016-07-16T00:49:29.330Z,1020.5
2016-07-16T00:49:39.328Z,1020.48
2016-07-16T00:49:49.324Z,1020.46
2016-07-16T00:49:59.317Z,1020.49
2016-07-16T00:50:09.312Z,1020.51
2016-07-16T00:50:19.306Z,1020.49
2016-07-16T00:50:29.301Z,1020.53
2016-07-16T00:50:39.299Z,1020.49
2016-07-16T00:50:49.291Z,1020.47
2016-07-16T00:50:59.287Z,1020.53
2016-07-16T00:51:09.282Z,1020.51
2016-07-16T00:51:19.290Z,1020.54
2016-07-16T00:51:29.273Z,1020.49
2016-07-16T00:51:39.265Z,1020.46
2016-07-16T00:51:49.260Z,1020.51
2016-07-16T00:51:59.257Z,1020.48
2016-07-16T00:52:09.252Z,1020.48
2016-07-16T00:52:19.249Z,1020.52
2016-07-16T00:52:29.244Z,1020.47
2016-07-16T00:52:39.239Z,1020.49
2016-07-16T00:52:49.234Z,1020.54
2016-07-16T00:52:59.227Z,1020.45
2016-07-16T00:53:09.225Z,1020.49
2016-07-16T00:53:19.220Z,1020.51
2016-07-16T00:53:29.214Z,1020.48
2016-07-16T00:53:39.209Z,1020.52
2016-07-16T00:53:49.205Z,1020.47
2016-07-16T00:53:59.199Z,1020.48
2016-07-16T00:54:09.192Z,1020.5
2016-07-16T00:54:19.189Z,1020.5
2016-07-16T00:54:29.184Z,1020.49
2016-07-16T00:54:39.178Z,1020.48
2016-07-16T00:54:49.174Z,1020.45
2016-07-16T00:54:59.170Z,1020.5
2016-07-16T00:55:09.162Z,1020.46
2016-07-16T00:55:19.159Z,1020.53
2016-07-16T00:55:29.155Z,1020.49
2016-07-16T00:55:39.151Z,1020.47
2016-07-16T00:55:49.151Z,1020.47
2016-07-16T00:55:59.143Z,1020.49
2016-07-16T00:56:09.136Z,1020.51
2016-07-16T00:56:19.132Z,1020.46
2016-07-16T00:56:29.127Z,1020.5
2016-07-16T00:56:39.124Z,1020.46
2016-07-16T00:56:49.115Z,1020.49
2016-07-16T00:56:59.106Z,1020.48
2016-07-16T00:57:09.110Z,1020.46
2016-07-16T00:57:19.102Z,1020.49
2016-07-16T00:57:29.097Z,1020.47
2016-07-16T00:57:39.091Z,1020.48
2016-07-16T00:57:49.087Z,1020.48
2016-07-16T00:57:59.810Z,1020.45
2016-07-16T00:58:09.077Z,1020.5
2016-07-16T00:58:19.072Z,1020.45
2016-07-16T00:58:29.066Z,1020.46
2016-07-16T00:58:39.063Z,1020.49
2016-07-16T00:58:49.059Z,1020.5
2016-07-16T00:58:59.054Z,1020.47
2016-07-16T00:59:09.050Z,1020.47
2016-07-16T00:59:19.045Z,1020.51
2016-07-16T00:59:29.038Z,1020.47
2016-07-16T00:59:39.033Z,1020.52
2016-07-16T00:59:49.028Z,1020.48
2016-07-16T00:59:59.025Z,1020.43
2016-07-16T01:00:09.019Z,1020.33
2016-07-16T01:00:19.016Z,1020.41
2016-07-16T01:00:29.011Z,1020.44
2016-07-16T01:00:39.000Z,1020.49
2016-07-16T01:00:48.997Z,1020.48
2016-07-16T01:00:58.994Z,1020.47
2016-07-16T01:01:08.988Z,1020.48
2016-07-16T01:01:18.987Z,1020.47
2016-07-16T01:01:28.978Z,1020.43
2016-07-16T01:01:38.974Z,1020.45
2016-07-16T01:01:48.970Z,1020.48
2016-07-16T01:01:58.967Z,1020.48
2016-07-16T01:02:08.961Z,1020.44
2016-07-16T01:02:18.954Z,1020.43
2016-07-16T01:02:28.957Z,1020.48
2016-07-16T01:02:38.947Z,1020.4
2016-07-16T01:02:48.938Z,1020.48
2016-07-16T01:02:58.934Z,1020.52
2016-07-16T01:03:08.929Z,1020.52
2016-07-16T01:03:18.925Z,1020.46
2016-07-16T01:03:28.921Z,1020.44
2016-07-16T01:03:38.916Z,1020.43
2016-07-16T01:03:48.912Z,1020.42
2016-07-16T01:03:58.906Z,1020.41
2016-07-16T01:04:08.900Z,1020.42
2016-07-16T01:04:18.895Z,1020.45
2016-07-16T01:04:28.891Z,1020.39
2016-07-16T01:04:38.885Z,1020.41
2016-07-16T01:04:48.882Z,1020.44
2016-07-16T01:04:58.876Z,1020.42
2016-07-16T01:05:08.872Z,1020.39
2016-07-16T01:05:18.867Z,1020.44
2016-07-16T01:05:28.862Z,1020.42
2016-07-16T01:05:38.861Z,1020.47
2016-07-16T01:05:48.852Z,1020.43
2016-07-16T01:05:58.850Z,1020.44
2016-07-16T01:06:08.846Z,1020.4
2016-07-16T01:06:18.839Z,1020.46
2016-07-16T01:06:28.833Z,1020.44
2016-07-16T01:06:38.829Z,1020.38
2016-07-16T01:06:48.824Z,1020.49
2016-07-16T01:06:58.817Z,1020.39
2016-07-16T01:07:08.823Z,1020.41
2016-07-16T01:07:18.808Z,1020.44
2016-07-16T01:07:28.803Z,1020.42
2016-07-16T01:07:38.797Z,1020.44
2016-07-16T01:07:48.793Z,1020.42
2016-07-16T01:07:58.788Z,1020.4
2016-07-16T01:08:08.784Z,1020.43
2016-07-16T01:08:18.779Z,1020.42
2016-07-16T01:08:28.774Z,1020.44
2016-07-16T01:08:38.774Z,1020.41
2016-07-16T01:08:48.765Z,1020.49
2016-07-16T01:08:58.761Z,1020.43
2016-07-16T01:09:08.755Z,1020.49
2016-07-16T01:09:18.752Z,1020.44
2016-07-16T01:09:28.747Z,1020.44
2016-07-16T01:09:38.739Z,1020.42
2016-07-16T01:09:48.734Z,1020.46
2016-07-16T01:09:58.736Z,1020.46
2016-07-16T01:10:09.466Z,1020.49
2016-07-16T01:10:18.720Z,1020.44
2016-07-16T01:10:28.716Z,1020.44
2016-07-16T01:10:38.709Z,1020.46
2016-07-16T01:10:48.706Z,1020.48
2016-07-16T01:10:58.701Z,1020.44
2016-07-16T01:11:08.697Z,1020.43
2016-07-16T01:11:18.693Z,1020.52
2016-07-16T01:11:28.688Z,1020.49
2016-07-16T01:11:38.683Z,1020.45
2016-07-16T01:11:48.678Z,1020.48
2016-07-16T01:11:58.670Z,1020.47
2016-07-16T01:12:08.668Z,1020.44
2016-07-16T01:12:18.662Z,1020.43
2016-07-16T01:12:28.667Z,1020.5
2016-07-16T01:12:38.653Z,1020.49
2016-07-16T01:12:48.649Z,1020.46
2016-07-16T01:12:58.639Z,1020.51
2016-07-16T01:13:08.636Z,1020.5
2016-07-16T01:13:18.631Z,1020.51
2016-07-16T01:13:28.627Z,1020.49
2016-07-16T01:13:38.623Z,1020.52
2016-07-16T01:13:48.617Z,1020.48
2016-07-16T01:13:58.613Z,1020.49
2016-07-16T01:14:08.609Z,1020.47
2016-07-16T01:14:18.606Z,1020.38
2016-07-16T01:14:28.600Z,1020.36
2016-07-16T01:14:38.595Z,1020.47
2016-07-16T01:14:48.590Z,1020.45
2016-07-16T01:14:58.585Z,1020.39
2016-07-16T01:15:08.580Z,1020.39
2016-07-16T01:15:18.575Z,1020.43
2016-07-16T01:15:28.570Z,1020.51
2016-07-16T01:15:38.562Z,1020.46
2016-07-16T01:15:48.562Z,1020.41
2016-07-16T01:15:58.553Z,1020.41
2016-07-16T01:16:08.553Z,1020.45
2016-07-16T01:16:18.545Z,1020.39
2016-07-16T01:16:28.539Z,1020.42
2016-07-16T01:16:38.533Z,1020.43
2016-07-16T01:16:48.530Z,1020.49
2016-07-16T01:16:58.524Z,1020.55
2016-07-16T01:17:08.522Z,1020.49
2016-07-16T01:17:18.517Z,1020.49
2016-07-16T01:17:28.512Z,1020.5
2016-07-16T01:17:38.508Z,1020.5
2016-07-16T01:17:48.502Z,1020.49
2016-07-16T01:17:58.497Z,1020.45
2016-07-16T01:18:08.491Z,1020.5
2016-07-16T01:18:18.486Z,1020.49
2016-07-16T01:18:28.483Z,1020.49
2016-07-16T01:18:38.476Z,1020.51
2016-07-16T01:18:48.481Z,1020.51
2016-07-16T01:18:58.468Z,1020.53
2016-07-16T01:19:08.464Z,1020.52
2016-07-16T01:19:18.455Z,1020.5
2016-07-16T01:19:28.458Z,1020.53
2016-07-16T01:19:38.445Z,1020.51
2016-07-16T01:19:48.443Z,1020.55
2016-07-16T01:19:58.441Z,1020.51
2016-07-16T01:20:08.434Z,1020.48
2016-07-16T01:20:18.428Z,1020.47
2016-07-16T01:20:28.425Z,1020.43
2016-07-16T01:20:38.417Z,1020.48
2016-07-16T01:20:48.413Z,1020.51
2016-07-16T01:20:58.408Z,1020.55
2016-07-16T01:21:08.404Z,1020.53
2016-07-16T01:21:18.398Z,1020.52
2016-07-16T01:21:28.392Z,1020.5
2016-07-16T01:21:38.389Z,1020.49
2016-07-16T01:21:48.382Z,1020.52
2016-07-16T01:21:58.377Z,1020.57
2016-07-16T01:22:08.374Z,1020.59
2016-07-16T01:22:18.367Z,1020.56
2016-07-16T01:22:28.362Z,1020.55
2016-07-16T01:22:38.360Z,1020.56
2016-07-16T01:22:48.353Z,1020.57
2016-07-16T01:22:58.347Z,1020.6
2016-07-16T01:23:08.343Z,1020.54
2016-07-16T01:23:18.340Z,1020.56
2016-07-16T01:23:28.336Z,1020.61
2016-07-16T01:23:38.331Z,1020.54
2016-07-16T01:23:48.326Z,1020.63
2016-07-16T01:23:58.323Z,1020.57
2016-07-16T01:24:08.317Z,1020.53
2016-07-16T01:24:18.310Z,1020.48
2016-07-16T01:24:28.307Z,1020.49
2016-07-16T01:24:38.302Z,1020.6
2016-07-16T01:24:48.296Z,1020.54
2016-07-16T01:24:58.289Z,1020.52
2016-07-16T01:25:08.287Z,1020.53
2016-07-16T01:25:18.281Z,1020.49
2016-07-16T01:25:28.276Z,1020.56
2016-07-16T01:25:38.272Z,1020.54
2016-07-16T01:25:48.266Z,1020.62
2016-07-16T01:25:58.262Z,1020.55
2016-07-16T01:26:08.986Z,1020.61
2016-07-16T01:26:18.252Z,1020.56
2016-07-16T01:26:28.247Z,1020.57
2016-07-16T01:26:38.243Z,1020.57
2016-07-16T01:26:48.235Z,1020.54
2016-07-16T01:26:58.230Z,1020.57
2016-07-16T01:27:08.231Z,1020.62
2016-07-16T01:27:18.225Z,1020.59
2016-07-16T01:27:28.217Z,1020.62
2016-07-16T01:27:38.212Z,1020.54
2016-07-16T01:27:48.207Z,1020.63
2016-07-16T01:27:58.206Z,1020.64
2016-07-16T01:28:08.198Z,1020.6
2016-07-16T01:28:18.191Z,1020.56
2016-07-16T01:28:28.190Z,1020.6
2016-07-16T01:28:38.182Z,1020.62
2016-07-16T01:28:48.907Z,1020.6
2016-07-16T01:28:58.173Z,1020.6
2016-07-16T01:29:08.168Z,1020.56
2016-07-16T01:29:18.164Z,1020.57
2016-07-16T01:29:28.157Z,1020.58
2016-07-16T01:29:38.155Z,1020.57
2016-07-16T01:29:48.149Z,1020.59
2016-07-16T01:29:58.147Z,1020.55
2016-07-16T01:30:08.141Z,1020.52
2016-07-16T01:30:18.133Z,1020.54
2016-07-16T01:30:28.134Z,1020.52
2016-07-16T01:30:38.130Z,1020.53
2016-07-16T01:30:48.122Z,1020.55
2016-07-16T01:30:58.116Z,1020.52
2016-07-16T01:31:08.112Z,1020.55
2016-07-16T01:31:18.104Z,1020.51
2016-07-16T01:31:28.099Z,1020.56
2016-07-16T01:31:38.092Z,1020.51
2016-07-16T01:31:48.090Z,1020.52
2016-07-16T01:31:58.084Z,1020.49
2016-07-16T01:32:08.080Z,1020.53
2016-07-16T01:32:18.081Z,1020.52
2016-07-16T01:32:28.071Z,1020.51
2016-07-16T01:32:38.066Z,1020.51
2016-07-16T01:32:48.064Z,1020.52
2016-07-16T01:32:58.057Z,1020.55
2016-07-16T01:33:08.051Z,1020.53
2016-07-16T01:33:18.049Z,1020.49
2016-07-16T01:33:28.043Z,1020.51
2016-07-16T01:33:38.038Z,1020.53
2016-07-16T01:33:48.033Z,1020.53
2016-07-16T01:33:58.028Z,1020.49
2016-07-16T01:34:08.027Z,1020.52
2016-07-16T01:34:18.016Z,1020.52
2016-07-16T01:34:28.740Z,1020.56
2016-07-16T01:34:38.005Z,1020.51
2016-07-16T01:34:48.001Z,1020.51
2016-07-16T01:34:57.995Z,1020.53
2016-07-16T01:35:07.993Z,1020.5
2016-07-16T01:35:17.987Z,1020.51
2016-07-16T01:35:27.982Z,1020.53
2016-07-16T01:35:37.978Z,1020.47
2016-07-16T01:35:47.974Z,1020.49
2016-07-16T01:35:57.970Z,1020.49
2016-07-16T01:36:07.964Z,1020.5
2016-07-16T01:36:17.958Z,1020.53
2016-07-16T01:36:27.955Z,1020.53
2016-07-16T01:36:37.948Z,1020.5
2016-07-16T01:36:47.943Z,1020.49
2016-07-16T01:36:57.939Z,1020.48
2016-07-16T01:37:07.937Z,1020.48
2016-07-16T01:37:17.931Z,1020.47
2016-07-16T01:37:27.925Z,1020.51
2016-07-16T01:37:37.921Z,1020.48
2016-07-16T01:37:47.912Z,1020.5
2016-07-16T01:37:57.910Z,1020.45
2016-07-16T01:38:07.904Z,1020.47
2016-07-16T01:38:17.900Z,1020.43
2016-07-16T01:38:27.895Z,1020.49
2016-07-16T01:38:37.891Z,1020.5
2016-07-16T01:38:47.886Z,1020.5
2016-07-16T01:38:57.882Z,1020.47
2016-07-16T01:39:07.878Z,1020.48
2016-07-16T01:39:17.870Z,1020.43
2016-07-16T01:39:27.866Z,1020.48
2016-07-16T01:39:37.862Z,1020.45
2016-07-16T01:39:47.858Z,1020.46
2016-07-16T01:39:57.852Z,1020.48
2016-07-16T01:40:07.845Z,1020.43
2016-07-16T01:40:17.842Z,1020.48
2016-07-16T01:40:27.838Z,1020.47
2016-07-16T01:40:37.830Z,1020.47
2016-07-16T01:40:47.831Z,1020.49
2016-07-16T01:40:57.822Z,1020.46
2016-07-16T01:41:07.814Z,1020.49
2016-07-16T01:41:17.810Z,1020.43
2016-07-16T01:41:27.805Z,1020.45
2016-07-16T01:41:37.801Z,1020.48
2016-07-16T01:41:47.799Z,1020.45
2016-07-16T01:41:57.799Z,1020.47
2016-07-16T01:42:07.788Z,1020.47
2016-07-16T01:42:17.783Z,1020.49
2016-07-16T01:42:27.779Z,1020.48
2016-07-16T01:42:37.776Z,1020.47
2016-07-16T01:42:47.766Z,1020.47
2016-07-16T01:42:57.764Z,1020.5
2016-07-16T01:43:07.759Z,1020.47
2016-07-16T01:43:17.755Z,1020.44
2016-07-16T01:43:27.750Z,1020.41
2016-07-16T01:43:37.744Z,1020.47
2016-07-16T01:43:47.739Z,1020.47
2016-07-16T01:43:57.735Z,1020.48
2016-07-16T01:44:08.458Z,1020.46
2016-07-16T01:44:17.724Z,1020.44
2016-07-16T01:44:27.720Z,1020.47
2016-07-16T01:44:37.714Z,1020.46
2016-07-16T01:44:47.709Z,1020.48
2016-07-16T01:44:57.703Z,1020.44
2016-07-16T01:45:07.700Z,1020.48
2016-07-16T01:45:17.697Z,1020.46
2016-07-16T01:45:27.692Z,1020.46
2016-07-16T01:45:37.686Z,1020.48
2016-07-16T01:45:47.681Z,1020.5
2016-07-16T01:45:57.677Z,1020.47
2016-07-16T01:46:07.672Z,1020.46
2016-07-16T01:46:17.665Z,1020.41
2016-07-16T01:46:27.661Z,1020.46
2016-07-16T01:46:37.656Z,1020.49
2016-07-16T01:46:47.653Z,1020.43
2016-07-16T01:46:57.646Z,1020.46
2016-07-16T01:47:07.643Z,1020.44
2016-07-16T01:47:17.635Z,1020.45
2016-07-16T01:47:27.631Z,1020.49
2016-07-16T01:47:37.625Z,1020.5
2016-07-16T01:47:47.621Z,1020.43
2016-07-16T01:47:57.616Z,1020.41
2016-07-16T01:48:07.611Z,1020.36
2016-07-16T01:48:17.608Z,1020.41
2016-07-16T01:48:27.604Z,1020.38
2016-07-16T01:48:37.599Z,1020.39
2016-07-16T01:48:47.595Z,1020.37
2016-07-16T01:48:57.590Z,1020.35
2016-07-16T01:49:07.584Z,1020.44
2016-07-16T01:49:17.580Z,1020.44
2016-07-16T01:49:27.573Z,1020.44
2016-07-16T01:49:37.566Z,1020.33
2016-07-16T01:49:47.563Z,1020.39
2016-07-16T01:49:57.556Z,1020.37
2016-07-16T01:50:07.554Z,1020.39
2016-07-16T01:50:17.546Z,1020.46
2016-07-16T01:50:27.544Z,1020.47
2016-07-16T01:50:37.538Z,1020.44
2016-07-16T01:50:47.533Z,1020.43
2016-07-16T01:50:57.530Z,1020.41
2016-07-16T01:51:07.526Z,1020.38
2016-07-16T01:51:17.518Z,1020.46
2016-07-16T01:51:27.514Z,1020.48
2016-07-16T01:51:37.512Z,1020.44
2016-07-16T01:51:47.505Z,1020.41
2016-07-16T01:51:57.501Z,1020.46
2016-07-16T01:52:07.495Z,1020.42
2016-07-16T01:52:17.492Z,1020.45
2016-07-16T01:52:27.485Z,1020.43
2016-07-16T01:52:37.479Z,1020.38
2016-07-16T01:52:47.475Z,1020.4
2016-07-16T01:52:57.467Z,1020.38
2016-07-16T01:53:07.465Z,1020.4
2016-07-16T01:53:17.460Z,1020.41
2016-07-16T01:53:27.457Z,1020.4
2016-07-16T01:53:37.450Z,1020.39
2016-07-16T01:53:47.444Z,1020.44
2016-07-16T01:53:57.440Z,1020.41
2016-07-16T01:54:07.437Z,1020.4
2016-07-16T01:54:17.429Z,1020.38
2016-07-16T01:54:27.428Z,1020.41
2016-07-16T01:54:37.419Z,1020.42
2016-07-16T01:54:47.418Z,1020.41
2016-07-16T01:54:57.411Z,1020.42
2016-07-16T01:55:07.409Z,1020.38
2016-07-16T01:55:17.400Z,1020.44
2016-07-16T01:55:27.401Z,1020.41
2016-07-16T01:55:37.404Z,1020.38
2016-07-16T01:55:47.388Z,1020.36
2016-07-16T01:55:57.381Z,1020.34
2016-07-16T01:56:07.377Z,1020.33
2016-07-16T01:56:17.372Z,1020.37
2016-07-16T01:56:27.369Z,1020.46
2016-07-16T01:56:37.360Z,1020.36
2016-07-16T01:56:47.357Z,1020.37
2016-07-16T01:56:57.353Z,1020.36
2016-07-16T01:57:07.349Z,1020.36
2016-07-16T01:57:17.343Z,1020.37
2016-07-16T01:57:27.339Z,1020.33
2016-07-16T01:57:37.334Z,1020.4
2016-07-16T01:57:47.330Z,1020.36
2016-07-16T01:57:57.323Z,1020.38
2016-07-16T01:58:07.320Z,1020.37
2016-07-16T01:58:17.314Z,1020.36
2016-07-16T01:58:27.310Z,1020.37
2016-07-16T01:58:37.305Z,1020.34
2016-07-16T01:58:47.301Z,1020.35
2016-07-16T01:58:57.295Z,1020.36
2016-07-16T01:59:08.024Z,1020.3
2016-07-16T01:59:17.286Z,1020.35
2016-07-16T01:59:27.281Z,1020.3
2016-07-16T01:59:37.274Z,1020.34
2016-07-16T01:59:47.269Z,1020.3
2016-07-16T01:59:57.267Z,1020.35
2016-07-16T02:00:07.261Z,1020.33
2016-07-16T02:00:17.252Z,1020.37
2016-07-16T02:00:27.250Z,1020.32
2016-07-16T02:00:37.245Z,1020.32
2016-07-16T02:00:47.242Z,1020.37
2016-07-16T02:00:57.234Z,1020.36
2016-07-16T02:01:07.232Z,1020.34